Time;durP1;ratioP1;P1;durP2;ratioP2;P2;SDS_P1;SDS_P2;PMS_P1;PMS_P2;Temp;Humidity;BMP_temperature;BMP_pressure;BME280_temperature;BME280_humidity;BME280_pressure;Samples;Min_cycle;Max_cycle;Signal;HPM_P1;HPM_P2
2021/11/05 03:47:44;;;;;;;7.93;5.57;;;7.80;90.90;;;;;;4854675;29;20062;-78
2021/11/05 03:50:10;;;;;;;9.43;4.93;;;7.60;91.20;;;;;;4837421;29;20041;-78
2021/11/05 03:52:36;;;;;;;7.63;5.72;;;7.60;91.70;;;;;;4828656;29;20026;-78
2021/11/05 03:55:03;;;;;;;5.53;3.90;;;7.50;91.70;;;;;;4840416;29;20041;-78
2021/11/05 03:57:28;;;;;;;7.63;4.50;;;7.40;92.40;;;;;;4840565;29;20161;-79
2021/11/05 03:59:54;;;;;;;10.75;5.00;;;7.50;92.20;;;;;;4809378;29;20037;-78
2021/11/05 04:02:20;;;;;;;8.30;5.07;;;7.60;92.10;;;;;;4855590;29;20052;-79
2021/11/05 04:04:46;;;;;;;9.65;5.25;;;7.60;92.10;;;;;;4799193;29;20410;-79
2021/11/05 04:07:12;;;;;;;6.78;4.40;;;7.50;92.20;;;;;;4828005;29;20037;-79
2021/11/05 04:09:38;;;;;;;6.45;4.25;;;7.40;92.30;;;;;;4828025;29;20105;-79
2021/11/05 04:12:04;;;;;;;7.43;4.07;;;7.40;92.80;;;;;;4837231;29;20041;-79
2021/11/05 04:14:30;;;;;;;5.70;3.50;;;7.60;92.70;;;;;;4837252;29;20037;-78
2021/11/05 04:16:55;;;;;;;5.72;4.07;;;7.80;92.30;;;;;;4836360;29;20463;-79
2021/11/05 04:19:21;;;;;;;5.10;3.58;;;7.90;91.90;;;;;;4836569;29;20102;-79
2021/11/05 04:21:47;;;;;;;10.70;4.18;;;8.10;91.70;;;;;;4836206;29;20045;-79
2021/11/05 04:24:13;;;;;;;5.57;3.75;;;8.20;91.40;;;;;;4823147;29;20333;-79
2021/11/05 04:26:39;;;;;;;4.68;3.28;;;8.30;91.10;;;;;;4840011;29;20033;-79
2021/11/05 04:29:05;;;;;;;8.07;3.78;;;8.50;90.30;;;;;;4869628;29;20033;-79
2021/11/05 04:31:31;;;;;;;4.75;2.92;;;8.60;90.00;;;;;;4839782;29;20033;-79
2021/11/05 04:33:57;;;;;;;7.63;3.05;;;8.70;88.40;;;;;;4839935;29;20624;-79
2021/11/05 04:36:22;;;;;;;6.57;3.10;;;8.90;88.50;;;;;;4868845;29;20029;-79
2021/11/05 04:38:51;;;;;;;4.63;3.42;;;8.90;87.20;;;;;;4843016;29;20046;-79
2021/11/05 04:41:17;;;;;;;6.57;3.85;;;9.00;87.50;;;;;;4827385;29;20037;-79
2021/11/05 04:43:43;;;;;;;6.95;4.43;;;9.10;86.40;;;;;;4821519;29;20199;-79
2021/11/05 04:46:09;;;;;;;9.82;3.55;;;9.20;85.80;;;;;;4833649;29;20059;-79
2021/11/05 04:48:35;;;;;;;8.15;3.72;;;9.20;86.00;;;;;;4818308;29;20101;-79
2021/11/05 04:51:01;;;;;;;6.05;3.00;;;9.20;85.30;;;;;;4812017;29;20421;-79
2021/11/05 04:53:26;;;;;;;3.47;2.80;;;9.10;85.50;;;;;;4825437;29;20058;-79
2021/11/05 04:55:52;;;;;;;8.20;4.75;;;9.20;85.60;;;;;;4806335;29;20042;-79
2021/11/05 04:58:18;;;;;;;6.15;3.63;;;9.20;85.30;;;;;;4822504;29;20033;-79
2021/11/05 05:00:44;;;;;;;9.68;4.25;;;9.10;85.90;;;;;;4810685;29;20042;-79
2021/11/05 05:03:10;;;;;;;6.22;5.18;;;9.00;86.50;;;;;;4821740;29;20053;-79
2021/11/05 05:05:36;;;;;;;8.23;5.30;;;9.00;87.00;;;;;;4838706;29;20060;-79
2021/11/05 05:08:02;;;;;;;7.93;5.40;;;8.90;87.40;;;;;;4838600;29;20088;-79
2021/11/05 05:10:28;;;;;;;10.93;4.82;;;8.80;87.80;;;;;;4817996;29;20056;-79
2021/11/05 05:12:55;;;;;;;10.32;5.65;;;8.70;88.20;;;;;;4817762;29;20030;-79
2021/11/05 05:15:21;;;;;;;7.57;3.83;;;8.60;88.50;;;;;;4826989;29;20065;-79
2021/11/05 05:17:47;;;;;;;8.80;3.80;;;8.60;89.00;;;;;;4817792;29;20354;-79
2021/11/05 05:20:15;;;;;;;7.05;3.92;;;8.60;88.90;;;;;;4848454;29;20034;-79
2021/11/05 05:22:42;;;;;;;7.72;4.40;;;8.70;88.00;;;;;;4824057;29;20048;-79
2021/11/05 05:25:10;;;;;;;5.93;4.07;;;8.70;88.10;;;;;;4851036;29;20334;-79
2021/11/05 05:27:37;;;;;;;11.20;4.70;;;8.80;88.00;;;;;;4842022;29;20281;-79
2021/11/05 05:30:05;;;;;;;16.63;6.93;;;8.80;88.30;;;;;;4821015;29;20106;-79
2021/11/05 05:32:31;;;;;;;21.77;7.05;;;8.80;88.30;;;;;;4805723;29;20057;-79
2021/11/05 05:34:56;;;;;;;17.30;6.38;;;8.60;89.00;;;;;;4793387;29;20037;-79
2021/11/05 05:37:22;;;;;;;14.00;7.03;;;8.50;89.60;;;;;;4838993;29;20051;-79
2021/11/05 05:39:48;;;;;;;14.35;7.25;;;8.30;90.10;;;;;;4818422;29;20037;-79
2021/11/05 05:42:14;;;;;;;22.38;7.65;;;8.20;90.30;;;;;;4841073;29;20037;-79
2021/11/05 05:44:40;;;;;;;17.52;7.28;;;8.20;90.60;;;;;;4818824;29;20033;-79
2021/11/05 05:47:07;;;;;;;16.13;8.07;;;8.00;90.80;;;;;;4833005;29;20057;-79
2021/11/05 05:49:33;;;;;;;;;;;7.90;91.10;;;;;;4856654;29;20325;-79
2021/11/05 05:51:58;;;;;;;13.37;8.30;;;7.80;91.60;;;;;;4830676;29;19919;-80
2021/11/05 05:54:24;;;;;;;16.10;8.63;;;7.70;91.60;;;;;;4807965;29;20040;-79
2021/11/05 05:56:50;;;;;;;17.90;8.10;;;7.70;91.80;;;;;;4812713;29;20105;-79
2021/11/05 05:59:17;;;;;;;15.82;8.10;;;7.70;92.10;;;;;;4804696;29;20284;-79
2021/11/05 06:01:43;;;;;;;26.30;7.38;;;7.70;92.30;;;;;;4823996;29;20045;-79
2021/11/05 06:04:09;;;;;;;15.43;6.80;;;7.70;92.50;;;;;;4812551;29;20057;-79
2021/11/05 06:06:34;;;;;;;13.52;7.25;;;7.70;92.60;;;;;;4819844;29;20263;-79
2021/11/05 06:09:00;;;;;;;19.52;8.07;;;7.70;92.70;;;;;;4822308;29;20334;-79
2021/11/05 06:11:26;;;;;;;12.38;7.90;;;7.70;92.80;;;;;;4847747;29;20038;-79
2021/11/05 06:13:52;;;;;;;16.48;8.13;;;7.80;92.80;;;;;;4837578;29;20029;-79
2021/11/05 06:16:19;;;;;;;19.58;7.40;;;7.80;92.90;;;;;;4827630;29;20069;-79
2021/11/05 06:18:45;;;;;;;23.20;8.55;;;7.80;92.90;;;;;;4837259;29;20034;-79
2021/11/05 06:21:11;;;;;;;18.23;7.55;;;7.90;93.00;;;;;;4834212;29;20083;-79
2021/11/05 06:23:37;;;;;;;24.85;7.13;;;7.90;93.10;;;;;;4809974;29;20034;-80
2021/11/05 06:26:03;;;;;;;11.90;8.13;;;7.90;93.20;;;;;;4823335;29;20042;-81
2021/11/05 06:28:29;;;;;;;20.80;7.38;;;8.00;93.10;;;;;;4830854;29;20041;-78
2021/11/05 06:30:54;;;;;;;9.27;6.80;;;8.00;93.00;;;;;;4816532;29;20034;-78
2021/11/05 06:33:20;;;;;;;9.77;6.35;;;8.10;92.80;;;;;;4812833;29;20037;-81
2021/11/05 06:35:47;;;;;;;11.80;6.07;;;8.20;92.60;;;;;;4807484;29;20037;-78
2021/11/05 06:38:13;;;;;;;11.47;5.90;;;8.30;92.10;;;;;;4821987;29;20057;-78
2021/11/05 06:40:42;;;;;;;8.20;4.88;;;8.40;92.00;;;;;;4834754;29;20279;-80
2021/11/05 06:43:09;;;;;;;8.82;5.65;;;8.50;91.70;;;;;;4830005;29;20038;-79
2021/11/05 06:45:34;;;;;;;12.53;5.83;;;8.60;91.30;;;;;;4788070;29;1110131;-78
2021/11/05 06:48:00;;;;;;;13.52;5.70;;;8.70;91.10;;;;;;4821518;29;20297;-79
2021/11/05 06:50:26;;;;;;;8.88;4.88;;;8.70;90.50;;;;;;4811472;29;20034;-79
2021/11/05 06:52:52;;;;;;;9.15;5.10;;;8.90;90.40;;;;;;4841225;29;20045;-79
2021/11/05 06:55:18;;;;;;;9.80;4.65;;;8.90;89.90;;;;;;4811433;29;20345;-79
2021/11/05 06:57:44;;;;;;;8.07;4.20;;;9.00;89.40;;;;;;4820597;29;20042;-79
2021/11/05 07:00:11;;;;;;;11.10;4.43;;;9.10;88.00;;;;;;4827008;29;20263;-79
2021/11/05 07:02:41;;;;;;;9.90;4.60;;;9.10;87.40;;;;;;4823897;29;20042;-79
2021/11/05 07:05:12;;;;;;;11.10;5.07;;;9.30;87.10;;;;;;4851249;29;20397;-79
2021/11/05 07:07:38;;;;;;;9.00;4.75;;;9.30;86.20;;;;;;4835479;29;20037;-79
2021/11/05 07:10:05;;;;;;;7.53;3.92;;;9.40;85.90;;;;;;4840456;29;20026;-79
2021/11/05 07:12:31;;;;;;;;;;;9.40;85.60;;;;;;4837163;29;20037;-79
2021/11/05 07:14:57;;;;;;;9.30;3.85;;;9.50;85.50;;;;;;4847073;29;20108;-79
2021/11/05 07:17:22;;;;;;;7.28;4.00;;;9.50;84.90;;;;;;4819664;29;20042;-79
2021/11/05 07:19:48;;;;;;;9.20;3.88;;;9.60;85.00;;;;;;4834606;29;20071;-79
2021/11/05 07:22:15;;;;;;;9.25;4.38;;;9.70;85.00;;;;;;4837733;29;20245;-79
2021/11/05 07:24:41;;;;;;;9.10;3.50;;;9.80;84.00;;;;;;4839271;29;20029;-78
2021/11/05 07:27:07;;;;;;;6.95;3.70;;;9.80;83.60;;;;;;4838363;29;20295;-79
2021/11/05 07:29:33;;;;;;;5.35;3.40;;;9.90;83.80;;;;;;4837128;29;20052;-79
2021/11/05 07:32:01;;;;;;;4.25;3.05;;;10.00;82.60;;;;;;4831312;29;20029;-79
2021/11/05 07:34:32;;;;;;;5.82;3.40;;;10.20;82.30;;;;;;4844322;29;20337;-79
2021/11/05 07:37:03;;;;;;;8.45;4.05;;;10.20;82.40;;;;;;4828897;29;20271;-79
2021/11/05 07:39:30;;;;;;;8.32;3.67;;;10.20;80.70;;;;;;4845214;29;20292;-79
2021/11/05 07:41:56;;;;;;;6.15;3.75;;;10.30;80.20;;;;;;4831708;29;20109;-79
2021/11/05 07:44:23;;;;;;;6.50;3.40;;;10.20;80.00;;;;;;4847606;29;20037;-79
2021/11/05 07:46:49;;;;;;;7.60;3.47;;;10.20;80.10;;;;;;4833965;29;20105;-79
2021/11/05 07:49:16;;;;;;;10.45;4.13;;;10.20;81.00;;;;;;4832726;29;20357;-79
2021/11/05 07:51:42;;;;;;;4.68;3.40;;;10.20;80.20;;;;;;4842258;29;20022;-79
2021/11/05 07:54:08;;;;;;;8.20;4.07;;;10.10;80.60;;;;;;4814598;29;20033;-79
2021/11/05 07:56:35;;;;;;;9.68;3.83;;;10.20;80.80;;;;;;4843777;29;20547;-79
2021/11/05 07:59:02;;;;;;;5.22;3.50;;;10.20;80.60;;;;;;4831590;29;20290;-79
2021/11/05 08:01:28;;;;;;;;;;;10.30;80.80;;;;;;4822120;29;20053;-79
2021/11/05 08:03:54;;;;;;;4.57;3.37;;;10.40;80.40;;;;;;4835571;29;19913;-79
2021/11/05 08:06:20;;;;;;;19.70;6.70;;;10.50;79.20;;;;;;4831007;29;20057;-79
2021/11/05 08:08:46;;;;;;;6.82;3.70;;;10.50;78.80;;;;;;4846250;29;20026;-79
2021/11/05 08:11:12;;;;;;;4.93;3.20;;;10.60;78.70;;;;;;4822914;29;20078;-79
2021/11/05 08:13:39;;;;;;;10.20;3.97;;;10.60;78.30;;;;;;4835276;29;20034;-79
2021/11/05 08:16:05;;;;;;;7.60;3.97;;;10.70;77.90;;;;;;4846613;29;20044;-79
2021/11/05 08:18:31;;;;;;;5.85;3.30;;;10.70;78.10;;;;;;4846997;29;20104;-79
2021/11/05 08:20:57;;;;;;;5.85;3.58;;;10.80;77.40;;;;;;4818824;29;20048;-79
2021/11/05 08:23:23;;;;;;;6.37;3.83;;;10.70;76.50;;;;;;4837446;29;20242;-79
2021/11/05 08:25:49;;;;;;;6.20;3.40;;;10.80;77.00;;;;;;4840903;29;20072;-80
2021/11/05 08:28:17;;;;;;;6.28;3.40;;;10.90;77.00;;;;;;4813395;29;20279;-79
2021/11/05 08:30:44;;;;;;;4.63;3.33;;;10.80;75.40;;;;;;4846302;29;20104;-80
2021/11/05 08:33:10;;;;;;;6.97;3.10;;;10.80;76.20;;;;;;4871158;29;20230;-79
2021/11/05 08:35:38;;;;;;;6.15;3.03;;;11.00;76.70;;;;;;4839484;29;20033;-79
2021/11/05 08:38:07;;;;;;;4.80;2.80;;;11.10;76.00;;;;;;4835086;29;20041;-79
2021/11/05 08:40:33;;;;;;;8.65;3.22;;;11.10;75.20;;;;;;4839423;29;20109;-79
2021/11/05 08:42:58;;;;;;;6.70;2.80;;;11.30;75.60;;;;;;4839774;29;20033;-79
2021/11/05 08:45:24;;;;;;;3.83;2.92;;;11.30;74.20;;;;;;4824618;29;20030;-79
2021/11/05 08:47:50;;;;;;;4.65;2.85;;;11.40;74.30;;;;;;4842722;29;20045;-79
2021/11/05 08:50:20;;;;;;;3.88;2.33;;;11.40;73.40;;;;;;4810001;29;20034;-79
2021/11/05 08:52:47;;;;;;;3.35;2.65;;;11.60;74.00;;;;;;4850986;29;20039;-79
2021/11/05 08:55:14;;;;;;;6.33;2.77;;;11.70;73.30;;;;;;4815656;29;20045;-79
2021/11/05 08:57:40;;;;;;;4.10;2.45;;;11.80;72.40;;;;;;4861285;29;20038;-79
2021/11/05 09:00:21;;;;;;;8.55;2.67;;;11.70;71.50;;;;;;4809978;29;20238;-79
2021/11/05 09:02:47;;;;;;;6.40;2.78;;;11.80;71.10;;;;;;4842706;29;20029;-79
2021/11/05 09:05:13;;;;;;;5.33;2.50;;;11.90;71.00;;;;;;4806275;29;20233;-79
2021/11/05 09:07:39;;;;;;;5.25;2.92;;;12.00;71.20;;;;;;4831178;29;20340;-79
2021/11/05 09:10:07;;;;;;;4.38;3.00;;;12.10;70.50;;;;;;4854026;29;20029;-79
2021/11/05 09:12:34;;;;;;;7.25;2.78;;;12.10;70.80;;;;;;4829863;29;20058;-79
2021/11/05 09:14:59;;;;;;;4.22;2.58;;;12.20;71.30;;;;;;4824991;29;20038;-79
2021/11/05 09:17:25;;;;;;;5.45;3.13;;;12.20;70.20;;;;;;4839424;29;20090;-79
2021/11/05 09:19:51;;;;;;;4.40;2.88;;;12.20;70.40;;;;;;4824152;29;20034;-79
2021/11/05 09:22:17;;;;;;;5.70;2.90;;;12.10;71.00;;;;;;4821311;29;20061;-79
2021/11/05 09:24:43;;;;;;;5.30;2.67;;;12.30;70.60;;;;;;4809459;29;20270;-79
2021/11/05 09:27:10;;;;;;;3.70;2.50;;;12.40;71.00;;;;;;4808596;29;20061;-79
2021/11/05 09:29:36;;;;;;;;;;;12.60;70.20;;;;;;4839932;29;20045;-79
2021/11/05 09:32:03;;;;;;;7.27;2.90;;;12.80;68.70;;;;;;4854053;29;19908;-79
2021/11/05 09:34:31;;;;;;;3.63;2.63;;;12.90;67.90;;;;;;4823671;29;20363;-80
2021/11/05 09:37:03;;;;;;;4.57;2.47;;;13.00;66.70;;;;;;4839229;29;20080;-79
2021/11/05 09:39:30;;;;;;;4.40;2.60;;;13.00;65.50;;;;;;4838446;29;20060;-79
2021/11/05 09:41:56;;;;;;;;;;;13.10;66.10;;;;;;4851224;29;20028;-80
2021/11/05 09:44:23;;;;;;;2.65;2.20;;;13.30;66.10;;;;;;4843700;29;19912;-80
2021/11/05 09:46:49;;;;;;;5.30;2.47;;;13.50;64.50;;;;;;4839925;29;20045;-80
2021/11/05 09:49:15;;;;;;;5.80;2.33;;;13.60;64.80;;;;;;4842632;29;20329;-80
2021/11/05 09:51:42;;;;;;;3.50;2.05;;;13.70;65.10;;;;;;4829800;29;20034;-80
2021/11/05 09:54:10;;;;;;;2.50;2.03;;;13.80;63.50;;;;;;4833700;29;20029;-80
2021/11/05 09:56:36;;;;;;;4.22;2.28;;;13.90;63.40;;;;;;4835467;29;20042;-80
2021/11/05 09:59:02;;;;;;;5.40;2.45;;;13.80;62.20;;;;;;4834493;29;20335;-80
2021/11/05 10:01:28;;;;;;;3.58;2.28;;;13.60;63.50;;;;;;4837476;29;20211;-80
2021/11/05 10:03:53;;;;;;;3.13;2.13;;;13.70;64.00;;;;;;4826444;29;20063;-80
2021/11/05 10:06:22;;;;;;;59.10;4.38;;;13.60;62.90;;;;;;4849601;29;20034;-81
2021/11/05 10:08:53;;;;;;;3.83;2.40;;;13.40;62.20;;;;;;4838956;29;20025;-79
2021/11/05 10:11:32;;;;;;;2.97;2.20;;;13.40;63.60;;;;;;4826774;29;20142;-79
2021/11/05 10:14:01;;;;;;;3.60;1.77;;;13.40;64.60;;;;;;4845127;29;20036;-79
2021/11/05 10:16:28;;;;;;;2.80;2.10;;;13.30;64.40;;;;;;4866674;29;20029;-79
2021/11/05 10:19:05;;;;;;;2.55;1.65;;;13.30;64.70;;;;;;4821610;29;20037;-79
2021/11/05 10:21:43;;;;;;;2.72;1.83;;;13.40;63.90;;;;;;4831466;29;20061;-79
2021/11/05 10:24:20;;;;;;;2.97;2.13;;;13.20;63.90;;;;;;4814331;29;20057;-79
2021/11/05 10:26:49;;;;;;;2.50;1.80;;;13.20;64.20;;;;;;4839697;29;20034;-79
2021/11/05 10:29:30;;;;;;;3.58;1.70;;;13.10;64.70;;;;;;4850853;29;20041;-79
2021/11/05 10:32:07;;;;;;;3.00;1.75;;;13.10;64.60;;;;;;4823211;29;20046;-79
2021/11/05 10:34:50;;;;;;;3.78;2.00;;;13.20;65.20;;;;;;4833118;29;20345;-79
2021/11/05 10:37:33;;;;;;;2.72;1.67;;;13.20;64.20;;;;;;4823461;29;20041;-79
2021/11/05 10:40:00;;;;;;;6.47;2.10;;;13.10;63.60;;;;;;4817652;29;20229;-79
2021/11/05 10:42:35;;;;;;;3.80;2.42;;;13.10;64.10;;;;;;4838344;29;20493;-79
2021/11/05 10:45:14;;;;;;;4.22;2.25;;;13.00;64.50;;;;;;4823318;29;20400;-79
2021/11/05 10:47:55;;;;;;;4.40;2.42;;;12.90;65.50;;;;;;4841311;29;20053;-79
2021/11/05 10:50:23;;;;;;;5.72;1.90;;;12.80;65.00;;;;;;4853140;29;20034;-79
2021/11/05 10:53:07;;;;;;;2.58;1.90;;;12.70;65.90;;;;;;4850061;29;20029;-79
2021/11/05 10:55:56;;;;;;;3.58;1.98;;;12.70;66.80;;;;;;4853462;29;20353;-79
2021/11/05 10:58:33;;;;;;;4.70;1.80;;;12.60;66.40;;;;;;4848506;29;20033;-79
2021/11/05 11:01:09;;;;;;;2.20;1.85;;;12.70;67.00;;;;;;4840360;29;20045;-79
2021/11/05 11:03:38;;;;;;;7.68;2.00;;;12.60;66.10;;;;;;4843852;29;20028;-79
2021/11/05 11:06:04;;;;;;;4.20;2.60;;;12.70;67.10;;;;;;4822921;29;20076;-79
2021/11/05 11:08:34;;;;;;;2.22;1.60;;;12.80;66.90;;;;;;4843794;29;20237;-79
2021/11/05 11:11:18;;;;;;;3.97;1.55;;;12.90;66.80;;;;;;4833567;29;20132;-79
2021/11/05 11:13:46;;;;;;;4.35;2.00;;;12.90;65.50;;;;;;4822890;29;20037;-79
2021/11/05 11:16:32;;;;;;;3.80;1.98;;;12.70;65.40;;;;;;4815136;29;20045;-79
2021/11/05 11:19:06;;;;;;;4.82;1.80;;;12.80;66.70;;;;;;4837728;29;20222;-79
2021/11/05 11:21:38;;;;;;;2.15;1.40;;;13.00;66.50;;;;;;4866048;29;20041;-79
2021/11/05 11:24:07;;;;;;;3.15;1.85;;;13.10;66.10;;;;;;4837573;29;20034;-79
2021/11/05 11:26:34;;;;;;;4.03;1.63;;;13.30;65.60;;;;;;4834769;29;20213;-79
2021/11/05 11:29:00;;;;;;;3.10;1.63;;;13.40;65.60;;;;;;4859324;29;20036;-79
2021/11/05 11:31:27;;;;;;;2.05;1.52;;;13.50;65.00;;;;;;4839874;29;20146;-79
2021/11/05 11:33:53;;;;;;;3.10;1.77;;;13.60;64.80;;;;;;4855392;29;20026;-79
2021/11/05 11:36:21;;;;;;;2.13;1.27;;;13.70;64.30;;;;;;4810214;29;20117;-79
2021/11/05 11:38:51;;;;;;;2.63;1.55;;;13.80;63.80;;;;;;4849326;29;20222;-79
2021/11/05 11:41:20;;;;;;;2.47;1.42;;;13.80;63.00;;;;;;4811715;29;20042;-79
2021/11/05 11:43:46;;;;;;;2.60;1.85;;;13.80;63.10;;;;;;4822152;29;20049;-79
2021/11/05 11:46:12;;;;;;;4.00;1.83;;;13.80;62.70;;;;;;4813338;29;20108;-79
2021/11/05 11:48:44;;;;;;;3.25;2.20;;;13.80;62.10;;;;;;4824067;29;20101;-79
2021/11/05 11:51:24;;;;;;;3.72;1.77;;;13.80;62.00;;;;;;4834792;29;20040;-79
2021/11/05 11:53:53;;;;;;;3.72;1.48;;;13.90;62.40;;;;;;4868055;29;20022;-79
2021/11/05 11:56:28;;;;;;;2.65;1.70;;;13.80;61.50;;;;;;4845487;29;20037;-80
2021/11/05 11:58:58;;;;;;;3.28;1.38;;;13.80;61.30;;;;;;4852661;29;20034;-79
2021/11/05 12:01:26;;;;;;;4.63;1.90;;;13.80;62.10;;;;;;4850415;29;20029;-80
2021/11/05 12:04:02;;;;;;;2.65;1.80;;;13.80;61.20;;;;;;4847023;29;20029;-79
2021/11/05 12:06:56;;;;;;;4.65;1.83;;;13.70;61.30;;;;;;4828195;29;20041;-79
2021/11/05 12:09:33;;;;;;;2.88;1.50;;;13.70;62.20;;;;;;4836797;29;20094;-79
2021/11/05 12:12:20;;;;;;;4.72;1.58;;;13.70;62.00;;;;;;4863694;29;20062;-80
2021/11/05 12:14:59;;;;;;;4.05;1.60;;;13.60;61.10;;;;;;4863167;29;20017;-79
2021/11/05 12:17:45;;;;;;;2.40;1.35;;;13.50;61.00;;;;;;4844287;29;20033;-79
2021/11/05 12:20:30;;;;;;;1.65;1.38;;;13.50;61.70;;;;;;4840274;29;20029;-79
2021/11/05 12:23:13;;;;;;;2.63;1.90;;;13.60;62.20;;;;;;4852919;29;20341;-79
2021/11/05 12:25:56;;;;;;;2.15;1.52;;;13.60;61.40;;;;;;4844823;29;20033;-79
2021/11/05 12:28:30;;;;;;;2.22;1.50;;;13.50;61.50;;;;;;4844337;29;20041;-79
2021/11/05 12:31:29;;;;;;;3.03;1.60;;;13.50;62.30;;;;;;4843601;29;20242;-79
2021/11/05 12:34:17;;;;;;;2.33;1.50;;;13.50;62.20;;;;;;4847291;29;20355;-79
2021/11/05 12:36:52;;;;;;;1.95;1.17;;;13.50;62.80;;;;;;4844181;29;20029;-79
2021/11/05 12:39:47;;;;;;;6.35;1.75;;;13.50;62.10;;;;;;4865945;29;20353;-79
2021/11/05 12:42:17;;;;;;;5.20;1.23;;;13.40;61.40;;;;;;4783309;29;20043;-79
2021/11/05 12:44:54;;;;;;;1.95;1.20;;;13.40;61.30;;;;;;4811174;29;20106;-79
2021/11/05 12:47:54;;;;;;;3.10;1.33;;;13.50;61.70;;;;;;4794818;29;20339;-79
2021/11/05 12:50:24;;;;;;;4.20;1.45;;;13.50;61.40;;;;;;4811870;29;20038;-79
2021/11/05 12:53:00;;;;;;;3.00;1.23;;;13.30;61.20;;;;;;4782464;29;20062;-79
2021/11/05 12:55:28;;;;;;;5.25;1.30;;;13.30;62.10;;;;;;4813145;29;20083;-79
2021/11/05 12:57:57;;;;;;;1.65;1.10;;;13.30;61.90;;;;;;4808404;29;20326;-79
2021/11/05 13:00:28;;;;;;;2.50;1.55;;;13.40;62.00;;;;;;4797971;29;20264;-79
2021/11/05 13:02:59;;;;;;;2.22;1.33;;;13.40;61.80;;;;;;4788738;29;20271;-79
2021/11/05 13:05:28;;;;;;;2.17;1.13;;;13.50;61.80;;;;;;4796546;29;20039;-79
2021/11/05 13:08:05;;;;;;;3.10;1.17;;;13.50;62.50;;;;;;4787980;29;20066;-79
2021/11/05 13:10:35;;;;;;;;;;;13.50;62.30;;;;;;4798253;29;20406;-79
2021/11/05 13:13:03;;;;;;;2.40;1.33;;;13.60;62.30;;;;;;4812501;29;19917;-79
2021/11/05 13:15:32;;;;;;;;;;;13.60;62.60;;;;;;4781008;29;20031;-79
2021/11/05 13:18:00;;;;;;;2.30;1.50;;;13.60;62.30;;;;;;4822973;29;19908;-79
2021/11/05 13:20:29;;;;;;;4.35;1.63;;;13.60;62.60;;;;;;4844433;29;20034;-79
2021/11/05 13:22:58;;;;;;;3.42;1.80;;;13.70;62.20;;;;;;4837284;29;20025;-79
2021/11/05 13:25:35;;;;;;;3.00;1.52;;;13.60;62.40;;;;;;4834281;29;20094;-79
2021/11/05 13:28:08;;;;;;;3.28;1.52;;;13.60;62.70;;;;;;4830026;29;20057;-79
2021/11/05 13:30:47;;;;;;;5.85;2.10;;;13.60;63.30;;;;;;4840287;29;20025;-79
2021/11/05 13:33:16;;;;;;;4.38;1.77;;;13.60;63.30;;;;;;4843151;29;20233;-79
2021/11/05 13:35:42;;;;;;;2.33;1.60;;;13.50;63.10;;;;;;4843478;29;20033;-79
2021/11/05 13:38:08;;;;;;;2.80;1.90;;;13.60;63.30;;;;;;4849379;29;20164;-79
2021/11/05 13:40:46;;;;;;;2.27;1.30;;;13.60;62.90;;;;;;4838165;29;20042;-79
2021/11/05 13:43:13;;;;;;;2.53;1.40;;;13.50;62.50;;;;;;4844058;29;20408;-79
2021/11/05 13:45:48;;;;;;;3.22;1.67;;;13.50;63.40;;;;;;4819229;29;20040;-79
2021/11/05 13:48:21;;;;;;;8.00;1.90;;;13.60;63.40;;;;;;4846515;29;20045;-79
2021/11/05 13:50:48;;;;;;;5.63;2.00;;;13.50;63.40;;;;;;4841442;29;20033;-79
2021/11/05 13:53:23;;;;;;;4.75;1.80;;;13.50;63.30;;;;;;4828800;29;20100;-79
2021/11/05 13:55:50;;;;;;;2.90;1.80;;;13.60;63.30;;;;;;4825454;29;20055;-79
2021/11/05 13:58:26;;;;;;;3.45;1.80;;;13.60;63.30;;;;;;4835696;29;20026;-79
2021/11/05 14:00:52;;;;;;;2.30;1.90;;;13.70;63.70;;;;;;4820013;29;20378;-79
2021/11/05 14:03:23;;;;;;;3.35;1.63;;;13.80;63.20;;;;;;4820239;29;20041;-79
2021/11/05 14:05:48;;;;;;;3.05;1.60;;;13.80;63.10;;;;;;4843631;29;20258;-79
2021/11/05 14:08:14;;;;;;;9.45;1.73;;;13.80;63.00;;;;;;4805368;29;20050;-79
2021/11/05 14:10:52;;;;;;;5.20;1.25;;;13.80;62.80;;;;;;4804948;29;20030;-79
2021/11/05 14:13:19;;;;;;;5.45;1.50;;;13.80;63.00;;;;;;4824276;29;20026;-79
2021/11/05 14:15:45;;;;;;;;;;;13.90;62.60;;;;;;4825827;29;20033;-78
2021/11/05 14:18:16;;;;;;;2.05;1.05;;;13.90;61.60;;;;;;4824379;29;19931;-79
2021/11/05 14:20:44;;;;;;;2.75;1.25;;;13.80;61.50;;;;;;4838994;29;20077;-79
2021/11/05 14:23:31;;;;;;;1.65;1.20;;;13.80;61.80;;;;;;4869406;29;20048;-79
2021/11/05 14:25:59;;;;;;;3.42;1.60;;;13.80;61.70;;;;;;4852759;29;20118;-79
2021/11/05 14:28:25;;;;;;;2.15;1.20;;;13.70;60.90;;;;;;4858376;29;20097;-79
2021/11/05 14:30:59;;;;;;;5.87;1.70;;;13.70;61.50;;;;;;4837440;29;20021;-79
2021/11/05 14:33:25;;;;;;;1.77;1.02;;;13.70;60.80;;;;;;4822554;29;20037;-79
2021/11/05 14:35:51;;;;;;;1.65;1.00;;;13.70;61.20;;;;;;4822261;29;20226;-79
2021/11/05 14:38:17;;;;;;;6.40;1.10;;;13.60;60.60;;;;;;4870044;29;20096;-79
2021/11/05 14:40:43;;;;;;;1.70;1.10;;;13.50;61.00;;;;;;4819726;29;20221;-79
2021/11/05 14:43:12;;;;;;;2.73;1.10;;;13.40;60.40;;;;;;4819716;29;20037;-79
2021/11/05 14:45:42;;;;;;;2.47;1.20;;;13.40;61.00;;;;;;4840827;29;20315;-79
2021/11/05 14:48:13;;;;;;;1.83;0.90;;;13.30;61.00;;;;;;4836059;29;20439;-79
2021/11/05 14:50:47;;;;;;;1.38;1.00;;;13.30;61.10;;;;;;4844380;29;20097;-79
2021/11/05 14:53:35;;;;;;;4.30;2.17;;;13.30;61.10;;;;;;4847065;29;20034;-79
2021/11/05 14:56:07;;;;;;;3.35;1.42;;;13.30;60.90;;;;;;4844510;29;20061;-79
2021/11/05 14:58:42;;;;;;;1.88;1.02;;;13.20;60.40;;;;;;4829468;29;20074;-79
2021/11/05 15:01:12;;;;;;;4.13;1.10;;;13.10;60.70;;;;;;4832867;29;20290;-79
2021/11/05 15:03:42;;;;;;;3.20;1.20;;;13.10;61.00;;;;;;4845111;29;20029;-78
2021/11/05 15:06:19;;;;;;;1.55;1.08;;;13.10;61.50;;;;;;4838901;29;20030;-78
2021/11/05 15:08:46;;;;;;;2.30;1.40;;;13.00;61.70;;;;;;4846375;29;20049;-79
2021/11/05 15:11:14;;;;;;;3.28;1.20;;;13.00;61.80;;;;;;4839078;29;20333;-78
2021/11/05 15:13:40;;;;;;;4.80;1.10;;;12.90;62.00;;;;;;4846566;29;20318;-78
2021/11/05 15:16:10;;;;;;;1.03;0.80;;;12.80;62.20;;;;;;4847135;29;20233;-78
2021/11/05 15:18:36;;;;;;;2.10;1.15;;;12.70;62.00;;;;;;4851744;29;20022;-79
2021/11/05 15:21:05;;;;;;;2.25;1.00;;;12.70;62.50;;;;;;4837746;29;20270;-79
2021/11/05 15:23:31;;;;;;;2.65;1.00;;;12.60;62.80;;;;;;4845758;29;20048;-79
2021/11/05 15:26:02;;;;;;;3.72;1.20;;;12.50;63.00;;;;;;4845158;29;20048;-79
2021/11/05 15:28:30;;;;;;;2.20;1.10;;;12.50;63.60;;;;;;4852722;29;20065;-79
2021/11/05 15:30:56;;;;;;;3.17;1.15;;;12.40;63.80;;;;;;4840578;29;20070;-79
2021/11/05 15:33:25;;;;;;;3.58;1.23;;;12.30;64.30;;;;;;4821826;29;20061;-79
2021/11/05 15:35:51;;;;;;;3.75;1.23;;;12.30;64.70;;;;;;4834400;29;20029;-79
2021/11/05 15:38:20;;;;;;;2.53;1.20;;;12.30;65.00;;;;;;4849187;29;20288;-79
2021/11/05 15:40:48;;;;;;;1.77;1.20;;;12.20;65.30;;;;;;4853635;29;20041;-79
2021/11/05 15:43:20;;;;;;;5.20;1.30;;;12.10;65.50;;;;;;4822162;29;20022;-79
2021/11/05 15:45:51;;;;;;;2.63;1.40;;;12.10;65.60;;;;;;4827362;29;20054;-79
2021/11/05 15:48:19;;;;;;;2.47;1.30;;;12.00;66.10;;;;;;4841085;29;20263;-79
2021/11/05 15:50:46;;;;;;;5.63;1.10;;;12.00;66.40;;;;;;4839165;29;20029;-79
2021/11/05 15:53:13;;;;;;;7.90;1.50;;;12.00;66.40;;;;;;4839751;29;20116;-79
2021/11/05 15:55:39;;;;;;;2.50;1.10;;;12.00;66.70;;;;;;4824219;29;20117;-79
2021/11/05 15:58:05;;;;;;;1.95;1.20;;;12.00;67.00;;;;;;4814783;29;20312;-79
2021/11/05 16:00:34;;;;;;;2.85;1.42;;;11.90;66.80;;;;;;4821479;29;20086;-79
2021/11/05 16:03:01;;;;;;;1.63;0.90;;;11.80;67.10;;;;;;4838872;29;20037;-79
2021/11/05 16:05:27;;;;;;;2.10;1.08;;;11.70;67.40;;;;;;4836112;29;20037;-79
2021/11/05 16:07:53;;;;;;;4.15;1.10;;;11.70;67.10;;;;;;4837022;29;20091;-79
2021/11/05 16:10:25;;;;;;;2.65;1.20;;;11.60;66.30;;;;;;4829317;29;20044;-79
2021/11/05 16:12:52;;;;;;;2.33;1.08;;;11.60;66.80;;;;;;4838621;29;20033;-79
2021/11/05 16:15:20;;;;;;;1.30;1.02;;;11.50;66.80;;;;;;4839248;29;20325;-79
2021/11/05 16:17:46;;;;;;;2.47;1.42;;;11.50;66.70;;;;;;4841134;29;20086;-79
2021/11/05 16:20:16;;;;;;;2.40;1.27;;;11.50;66.40;;;;;;4838810;29;20037;-79
2021/11/05 16:22:42;;;;;;;0.95;0.88;;;11.50;66.40;;;;;;4834904;29;20325;-79
2021/11/05 16:25:09;;;;;;;3.70;1.50;;;11.50;66.70;;;;;;4834530;29;20105;-79
2021/11/05 16:27:35;;;;;;;1.65;1.00;;;11.50;66.70;;;;;;4836400;29;20037;-79
2021/11/05 16:30:06;;;;;;;5.03;2.05;;;11.50;66.50;;;;;;4833617;29;20225;-79
2021/11/05 16:32:33;;;;;;;1.95;1.30;;;11.50;66.50;;;;;;4827756;29;20238;-79
2021/11/05 16:34:58;;;;;;;3.17;1.30;;;11.50;66.60;;;;;;4825710;29;20041;-79
2021/11/05 16:37:24;;;;;;;6.65;2.53;;;11.50;66.20;;;;;;4837270;29;20030;-79
2021/11/05 16:39:50;;;;;;;2.92;1.77;;;11.50;66.20;;;;;;4837057;29;20045;-79
2021/11/05 16:42:16;;;;;;;3.67;1.50;;;11.40;66.40;;;;;;4830258;29;20333;-79
2021/11/05 16:44:42;;;;;;;6.70;2.05;;;11.30;66.20;;;;;;4844349;29;20082;-79
2021/11/05 16:47:08;;;;;;;4.13;2.20;;;11.30;66.60;;;;;;4845124;29;20053;-79